createdAt,value
2022-11-16T00:01:15.006Z,5.50
2022-11-16T00:03:42.829Z,6.40
2022-11-16T00:06:12.142Z,5.90
2022-11-16T00:08:41.702Z,5.87
2022-11-16T00:11:11.242Z,6.20
2022-11-16T00:13:40.330Z,6.20
2022-11-16T00:16:09.363Z,5.80
2022-11-16T00:18:38.420Z,6.63
2022-11-16T00:21:06.693Z,6.20
2022-11-16T00:23:38.300Z,5.47
2022-11-16T00:26:06.677Z,5.70
2022-11-16T00:28:34.969Z,6.70
2022-11-16T00:31:04.884Z,5.77
2022-11-16T00:33:33.137Z,6.07
2022-11-16T00:36:03.618Z,6.37
2022-11-16T00:38:31.795Z,5.43
2022-11-16T00:41:00.096Z,6.23
2022-11-16T00:43:28.207Z,6.03
2022-11-16T00:45:55.873Z,5.87
2022-11-16T00:48:23.729Z,5.90
2022-11-16T00:50:51.578Z,5.80
2022-11-16T00:53:21.455Z,6.40
2022-11-16T00:55:49.299Z,5.23
2022-11-16T00:58:17.509Z,5.03
2022-11-16T01:00:45.609Z,6.60
2022-11-16T01:03:13.360Z,6.47
2022-11-16T01:05:41.058Z,5.77
2022-11-16T01:08:08.798Z,5.77
2022-11-16T01:10:40.008Z,6.03
2022-11-16T01:13:07.158Z,5.90
2022-11-16T01:15:34.954Z,6.67
2022-11-16T01:18:02.631Z,6.13
2022-11-16T01:20:30.957Z,5.43
2022-11-16T01:22:58.671Z,4.10
2022-11-16T01:25:26.325Z,5.40
2022-11-16T01:27:55.343Z,5.73
2022-11-16T01:30:23.072Z,5.77
2022-11-16T01:32:50.737Z,5.97
2022-11-16T01:35:19.882Z,5.47
2022-11-16T01:37:47.562Z,5.73
2022-11-16T01:40:15.542Z,6.03
2022-11-16T01:42:43.487Z,5.83
2022-11-16T01:45:22.936Z,5.57
2022-11-16T01:47:51.461Z,6.23
2022-11-16T01:50:19.967Z,5.57
2022-11-16T01:52:54.548Z,5.90
2022-11-16T01:55:24.555Z,5.63
2022-11-16T01:57:52.327Z,6.00
2022-11-16T02:00:21.583Z,4.63
2022-11-16T02:02:49.319Z,6.03
2022-11-16T02:05:21.808Z,5.87
2022-11-16T02:08:21.127Z,6.67
2022-11-16T02:11:11.163Z,6.37
2022-11-16T02:13:47.071Z,6.23
2022-11-16T02:16:26.427Z,6.60
2022-11-16T02:19:03.284Z,7.43
2022-11-16T02:21:42.123Z,7.00
2022-11-16T02:24:31.319Z,6.73
2022-11-16T02:27:43.353Z,7.07
2022-11-16T02:30:12.543Z,6.07
2022-11-16T02:32:44.992Z,7.30
2022-11-16T02:35:17.698Z,7.07
2022-11-16T02:37:49.565Z,7.43
2022-11-16T02:40:21.075Z,6.73
2022-11-16T02:42:53.055Z,6.77
2022-11-16T02:45:25.432Z,7.03
2022-11-16T02:47:55.786Z,7.60
2022-11-16T02:50:24.863Z,8.03
2022-11-16T02:52:52.602Z,7.37
2022-11-16T02:55:20.369Z,7.43
2022-11-16T02:57:52.691Z,7.77
2022-11-16T03:00:25.542Z,7.27
2022-11-16T03:03:03.217Z,7.37
2022-11-16T03:05:36.109Z,7.90
2022-11-16T03:08:14.010Z,8.37
2022-11-16T03:11:01.893Z,7.90
2022-11-16T03:13:33.153Z,7.70
2022-11-16T03:16:06.853Z,6.97
2022-11-16T03:18:35.315Z,7.90
2022-11-16T03:21:11.082Z,8.23
2022-11-16T03:23:39.145Z,8.70
2022-11-16T03:26:10.290Z,8.13
2022-11-16T03:28:44.430Z,7.50
2022-11-16T03:31:19.146Z,8.07
2022-11-16T03:33:52.370Z,9.53
2022-11-16T03:36:25.869Z,10.03
2022-11-16T03:38:55.481Z,8.43
2022-11-16T03:41:25.401Z,8.43
2022-11-16T03:43:54.180Z,10.43
2022-11-16T03:46:23.355Z,10.30
2022-11-16T03:48:57.678Z,10.30
2022-11-16T03:51:26.082Z,10.67
2022-11-16T03:53:53.765Z,10.67
2022-11-16T03:56:21.729Z,10.03
2022-11-16T03:58:49.450Z,9.47
2022-11-16T04:01:17.182Z,11.40
2022-11-16T04:03:46.286Z,10.87
2022-11-16T04:06:31.640Z,10.10
2022-11-16T04:09:16.298Z,11.27
2022-11-16T04:12:01.508Z,10.03
2022-11-16T04:14:47.398Z,11.10
2022-11-16T04:17:33.401Z,11.50
2022-11-16T04:20:20.003Z,9.90
2022-11-16T04:23:09.378Z,10.67
2022-11-16T04:25:39.507Z,10.63
2022-11-16T04:28:16.288Z,11.70
2022-11-16T04:31:04.858Z,9.37
2022-11-16T04:33:51.086Z,11.40
2022-11-16T04:36:37.733Z,10.80
2022-11-16T04:39:05.937Z,11.17
2022-11-16T04:41:51.911Z,9.47
2022-11-16T04:44:20.345Z,11.40
2022-11-16T04:47:05.906Z,11.97
2022-11-16T04:49:34.034Z,12.80
2022-11-16T04:52:03.129Z,10.90
2022-11-16T04:54:30.858Z,12.80
2022-11-16T04:56:58.570Z,12.40
2022-11-16T04:59:26.235Z,11.77
2022-11-16T05:02:11.947Z,12.10
2022-11-16T05:04:41.389Z,11.73
2022-11-16T05:07:12.057Z,11.47
2022-11-16T05:09:42.619Z,11.63
2022-11-16T05:12:10.829Z,12.10
2022-11-16T05:14:38.576Z,11.17
2022-11-16T05:17:06.220Z,11.40
2022-11-16T05:19:51.571Z,10.90
2022-11-16T05:22:20.861Z,11.33
2022-11-16T05:24:48.519Z,12.30
2022-11-16T05:27:17.596Z,11.63
2022-11-16T05:29:46.517Z,12.90
2022-11-16T05:32:14.508Z,10.67
2022-11-16T05:34:42.496Z,8.43
2022-11-16T05:37:10.718Z,12.63
2022-11-16T05:39:39.821Z,11.40
2022-11-16T05:42:08.084Z,12.20
2022-11-16T05:44:35.918Z,11.77
2022-11-16T05:47:03.769Z,11.70
2022-11-16T05:49:31.610Z,11.43
2022-11-16T05:51:59.363Z,13.03
2022-11-16T05:54:27.121Z,14.93
2022-11-16T05:56:56.214Z,13.10
2022-11-16T05:59:24.582Z,12.00
2022-11-16T06:01:52.965Z,11.90
2022-11-16T06:04:24.709Z,14.23
2022-11-16T06:06:52.938Z,12.80
2022-11-16T06:09:20.987Z,14.83
2022-11-16T06:11:48.720Z,14.77
2022-11-16T06:14:17.751Z,11.17
2022-11-16T06:16:45.452Z,14.00
2022-11-16T06:19:13.154Z,15.57
2022-11-16T06:21:40.864Z,13.83
2022-11-16T06:24:09.476Z,11.07
2022-11-16T06:26:37.477Z,11.63
2022-11-16T06:29:05.529Z,13.80
2022-11-16T06:31:34.531Z,12.33
2022-11-16T06:34:02.216Z,12.70
2022-11-16T06:36:29.949Z,14.97
2022-11-16T06:39:00.126Z,16.40
2022-11-16T06:41:27.801Z,11.57
2022-11-16T06:43:55.567Z,15.80
2022-11-16T06:46:24.759Z,11.97
2022-11-16T06:48:53.858Z,14.50
2022-11-16T06:51:21.501Z,15.47
2022-11-16T06:53:49.155Z,13.57
2022-11-16T06:56:17.033Z,14.30
2022-11-16T06:58:44.737Z,13.07
2022-11-16T07:01:13.205Z,9.60
2022-11-16T07:03:40.890Z,11.63
2022-11-16T07:06:12.180Z,15.27
2022-11-16T07:08:39.878Z,12.57
2022-11-16T07:11:09.271Z,15.77
2022-11-16T07:13:38.979Z,15.83
2022-11-16T07:16:08.035Z,14.60
2022-11-16T07:18:36.964Z,12.03
2022-11-16T07:21:10.313Z,14.10
2022-11-16T07:23:38.339Z,14.17
2022-11-16T07:26:08.038Z,16.10
2022-11-16T07:28:36.092Z,14.87
2022-11-16T07:31:05.255Z,18.00
2022-11-16T07:33:32.994Z,15.37
2022-11-16T07:36:02.949Z,14.57
2022-11-16T07:38:32.966Z,19.87
2022-11-16T07:41:02.606Z,16.20
2022-11-16T07:43:31.678Z,13.50
2022-11-16T07:46:30.230Z,16.27
2022-11-16T07:48:50.966Z,13.37
2022-11-16T07:51:19.494Z,14.60
2022-11-16T07:53:48.563Z,12.57
2022-11-16T07:56:16.234Z,15.13
2022-11-16T07:58:43.923Z,18.63
2022-11-16T08:01:12.953Z,22.80
2022-11-16T08:03:41.759Z,13.27
2022-11-16T08:06:13.385Z,10.77
2022-11-16T08:08:41.106Z,14.80
2022-11-16T08:11:12.496Z,18.40
2022-11-16T08:13:41.744Z,19.47
2022-11-16T08:16:12.022Z,15.80
2022-11-16T08:18:40.544Z,12.83
2022-11-16T08:21:09.461Z,14.57
2022-11-16T08:23:37.417Z,16.77
2022-11-16T08:26:06.768Z,12.00
2022-11-16T08:28:36.207Z,15.33
2022-11-16T08:31:09.199Z,18.67
2022-11-16T08:33:36.969Z,16.90
2022-11-16T08:36:10.886Z,14.33
2022-11-16T08:38:41.426Z,12.83
2022-11-16T08:41:09.451Z,16.80
2022-11-16T08:43:39.495Z,17.37
2022-11-16T08:46:07.527Z,10.47
2022-11-16T08:48:35.846Z,18.47
2022-11-16T08:51:20.906Z,12.70
2022-11-16T08:53:49.873Z,18.10
2022-11-16T08:56:19.512Z,16.10
2022-11-16T08:58:52.508Z,15.13
2022-11-16T09:01:25.937Z,16.03
2022-11-16T09:03:54.570Z,16.23
2022-11-16T09:06:22.941Z,15.30
2022-11-16T09:08:51.081Z,17.93
2022-11-16T09:11:21.981Z,17.60
2022-11-16T09:13:52.616Z,15.53
2022-11-16T09:16:21.688Z,16.20
2022-11-16T09:18:50.786Z,17.60
2022-11-16T09:21:20.076Z,17.80
2022-11-16T09:23:48.941Z,15.40
2022-11-16T09:26:20.476Z,14.07
2022-11-16T09:28:48.247Z,13.03
2022-11-16T09:31:22.964Z,15.23
2022-11-16T09:33:54.051Z,16.57
2022-11-16T09:36:22.180Z,12.63
2022-11-16T09:41:56.779Z,16.97
2022-11-16T09:44:48.055Z,11.33
2022-11-16T09:47:19.660Z,20.97
2022-11-16T09:49:52.224Z,13.13
2022-11-16T09:52:28.041Z,15.33
2022-11-16T09:54:59.045Z,18.07
2022-11-16T09:57:32.545Z,17.73
2022-11-16T10:00:05.562Z,11.27
2022-11-16T10:02:39.784Z,14.87
2022-11-16T10:05:18.820Z,17.43
2022-11-16T10:07:49.356Z,16.87
2022-11-16T10:10:18.880Z,19.43
2022-11-16T10:12:51.853Z,16.40
2022-11-16T10:15:36.826Z,19.07
2022-11-16T10:18:24.237Z,11.87
2022-11-16T10:21:03.762Z,10.07
2022-11-16T10:23:42.920Z,17.33
2022-11-16T10:26:24.730Z,16.30
2022-11-16T10:29:05.039Z,15.33
2022-11-16T10:31:51.412Z,15.83
2022-11-16T10:34:23.548Z,15.47
2022-11-16T10:36:51.444Z,13.90
2022-11-16T10:39:20.463Z,14.30
2022-11-16T10:41:50.589Z,17.03
2022-11-16T10:44:22.761Z,18.27
2022-11-16T10:46:59.784Z,15.23
2022-11-16T10:49:37.979Z,17.30
2022-11-16T10:52:05.973Z,17.70
2022-11-16T10:54:33.620Z,10.77
2022-11-16T10:57:05.912Z,15.30
2022-11-16T10:59:41.962Z,15.73
2022-11-16T11:02:31.143Z,14.10
2022-11-16T11:05:15.325Z,15.73
2022-11-16T11:07:47.682Z,11.67
2022-11-16T11:10:29.414Z,16.43
2022-11-16T11:13:21.751Z,18.20
2022-11-16T11:15:51.284Z,16.67
2022-11-16T11:18:25.997Z,15.53
2022-11-16T11:21:15.322Z,15.80
2022-11-16T11:23:45.565Z,15.63
2022-11-16T11:26:35.935Z,14.77
2022-11-16T11:29:16.799Z,21.43
2022-11-16T11:31:47.239Z,16.40
2022-11-16T11:34:18.844Z,19.13
2022-11-16T11:36:51.744Z,13.43
2022-11-16T11:39:34.963Z,14.43
2022-11-16T11:42:20.579Z,16.33
2022-11-16T11:44:54.794Z,14.90
2022-11-16T11:47:58.101Z,13.20
2022-11-16T11:50:32.564Z,16.13
2022-11-16T11:53:06.460Z,15.70
2022-11-16T11:55:35.092Z,13.80
2022-11-16T11:58:05.412Z,16.03
2022-11-16T12:00:42.610Z,12.90
2022-11-16T12:03:32.383Z,11.03
2022-11-16T12:06:08.626Z,14.87
2022-11-16T12:09:04.828Z,15.80
2022-11-16T12:11:44.409Z,10.63
2022-11-16T12:14:31.181Z,13.27
2022-11-16T12:17:08.020Z,14.03
2022-11-16T12:19:56.403Z,13.03
2022-11-16T12:22:41.780Z,12.33
2022-11-16T12:25:21.963Z,12.63
2022-11-16T12:27:57.694Z,12.90
2022-11-16T12:30:25.893Z,13.33
2022-11-16T12:33:05.810Z,10.30
2022-11-16T12:35:45.572Z,11.77
2022-11-16T12:38:27.537Z,11.90
2022-11-16T12:41:13.421Z,12.33
2022-11-16T12:43:52.379Z,13.47
2022-11-16T12:46:28.262Z,13.30
2022-11-16T12:49:25.383Z,15.33
2022-11-16T12:52:02.470Z,12.07
2022-11-16T12:55:24.066Z,15.40
2022-11-16T12:57:53.985Z,14.07
2022-11-16T13:00:21.865Z,17.10
2022-11-16T13:03:05.131Z,15.33
2022-11-16T13:05:48.362Z,15.97
2022-11-16T13:08:24.166Z,13.47
2022-11-16T13:10:58.425Z,16.93
2022-11-16T13:13:49.664Z,14.87
2022-11-16T13:16:18.438Z,15.33
2022-11-16T13:18:46.120Z,16.77
2022-11-16T13:21:23.601Z,16.97
2022-11-16T13:24:03.846Z,14.93
2022-11-16T13:26:36.982Z,10.47
2022-11-16T13:29:16.819Z,14.97
2022-11-16T13:31:50.953Z,12.87
2022-11-16T13:34:23.887Z,16.30
2022-11-16T13:36:51.630Z,16.23
2022-11-16T13:39:22.951Z,14.60
2022-11-16T13:41:52.923Z,17.87
2022-11-16T13:44:30.694Z,16.87
2022-11-16T13:47:04.972Z,19.63
2022-11-16T13:49:36.309Z,13.63
2022-11-16T13:52:22.543Z,18.10
2022-11-16T13:54:54.176Z,11.20
2022-11-16T13:57:26.123Z,14.63
2022-11-16T14:00:10.383Z,15.13
2022-11-16T14:02:39.980Z,16.20
2022-11-16T14:05:17.385Z,12.90
2022-11-16T14:07:47.932Z,12.53
2022-11-16T14:10:50.028Z,13.67
2022-11-16T14:13:39.849Z,8.83
2022-11-16T14:16:48.955Z,14.20
2022-11-16T14:19:55.011Z,11.90
2022-11-16T14:22:48.586Z,11.03
2022-11-16T14:25:39.456Z,9.67
2022-11-16T14:28:24.988Z,14.63
2022-11-16T14:31:01.964Z,10.43
2022-11-16T14:33:33.463Z,12.87
2022-11-16T14:36:03.409Z,7.47
2022-11-16T14:38:34.391Z,14.83
2022-11-16T14:41:04.356Z,9.20
2022-11-16T14:43:36.775Z,12.43
2022-11-16T14:46:08.530Z,12.93
2022-11-16T14:48:44.580Z,9.30
2022-11-16T14:51:16.065Z,8.27
2022-11-16T14:53:49.355Z,13.47
2022-11-16T14:56:18.859Z,9.47
2022-11-16T14:58:57.442Z,9.47
2022-11-16T15:01:28.860Z,8.30
2022-11-16T15:04:02.281Z,10.47
2022-11-16T15:06:36.953Z,7.50
2022-11-16T15:09:06.833Z,11.53
2022-11-16T15:11:56.695Z,14.10
2022-11-16T15:14:27.764Z,8.50
2022-11-16T15:16:57.676Z,12.20
2022-11-16T15:19:25.875Z,13.60
2022-11-16T15:21:55.252Z,13.80
2022-11-16T15:24:31.049Z,16.03
2022-11-16T15:27:10.562Z,13.77
2022-11-16T15:29:38.816Z,10.70
2022-11-16T15:32:08.498Z,14.70
2022-11-16T15:34:40.118Z,16.27
2022-11-16T15:37:11.728Z,13.07
2022-11-16T15:39:40.987Z,14.00
2022-11-16T15:42:14.228Z,13.93
2022-11-16T15:44:43.259Z,11.70
2022-11-16T15:47:13.487Z,16.20
2022-11-16T15:49:44.040Z,16.00
2022-11-16T15:52:11.953Z,15.13
2022-11-16T15:55:00.546Z,14.47
2022-11-16T15:57:28.149Z,21.17
2022-11-16T15:59:57.498Z,14.70
2022-11-16T16:02:28.135Z,14.17
2022-11-16T16:04:55.848Z,17.60
2022-11-16T16:07:40.343Z,13.13
2022-11-16T16:10:23.513Z,11.97
2022-11-16T16:12:52.282Z,12.43
2022-11-16T16:15:25.021Z,11.80
2022-11-16T16:17:53.733Z,18.07
2022-11-16T16:20:23.799Z,10.60
2022-11-16T16:22:54.645Z,14.90
2022-11-16T16:25:32.149Z,18.47
2022-11-16T16:28:00.084Z,16.00
2022-11-16T16:30:29.535Z,16.93
2022-11-16T16:32:57.489Z,10.60
2022-11-16T16:35:26.758Z,18.00
2022-11-16T16:37:58.763Z,19.27
2022-11-16T16:40:27.164Z,16.00
2022-11-16T16:42:57.851Z,16.93
2022-11-16T16:45:33.588Z,19.13
2022-11-16T16:48:01.567Z,17.13
2022-11-16T16:50:29.264Z,15.27
2022-11-16T16:52:56.931Z,16.50
2022-11-16T16:55:24.765Z,14.70
2022-11-16T16:57:53.931Z,14.10
2022-11-16T17:00:23.135Z,13.33
2022-11-16T17:05:16.474Z,14.83
2022-11-16T17:07:44.224Z,12.97
2022-11-16T17:10:12.090Z,13.97
2022-11-16T17:12:40.023Z,14.60
2022-11-16T17:15:08.971Z,13.93
2022-11-16T17:17:41.626Z,15.57
2022-11-16T17:20:11.412Z,8.10
2022-11-16T17:22:39.108Z,12.83
2022-11-16T17:25:07.049Z,11.33
2022-11-16T17:27:34.745Z,8.77
2022-11-16T17:30:02.485Z,10.90
2022-11-16T17:32:31.493Z,7.90
2022-11-16T17:35:00.557Z,6.43
2022-11-16T17:37:28.314Z,11.43
2022-11-16T17:39:56.036Z,7.07
2022-11-16T17:42:23.769Z,7.93
2022-11-16T17:44:53.440Z,5.43
2022-11-16T17:47:21.127Z,6.07
2022-11-16T17:49:48.790Z,6.93
2022-11-16T17:52:17.902Z,8.03
2022-11-16T17:54:45.564Z,7.10
2022-11-16T17:57:13.343Z,9.10
2022-11-16T17:59:40.999Z,7.60
2022-11-16T18:02:11.394Z,6.70
2022-11-16T18:04:39.122Z,6.90
2022-11-16T18:07:06.898Z,6.53
2022-11-16T18:09:36.080Z,7.23
2022-11-16T18:12:04.038Z,6.20
2022-11-16T18:14:31.707Z,4.93
2022-11-16T18:16:59.424Z,6.27
2022-11-16T18:19:27.262Z,4.97
2022-11-16T18:21:54.949Z,5.63
2022-11-16T18:24:22.642Z,4.17
2022-11-16T18:26:51.687Z,4.20
2022-11-16T18:29:19.414Z,4.33
2022-11-16T18:31:47.068Z,5.50
2022-11-16T18:34:15.424Z,6.50
2022-11-16T18:36:43.148Z,4.97
2022-11-16T18:39:10.825Z,4.47
2022-11-16T18:41:48.582Z,5.70
2022-11-16T18:44:20.634Z,6.30
2022-11-16T18:46:48.396Z,5.17
2022-11-16T18:49:16.078Z,6.00
2022-11-16T18:51:43.794Z,7.47
2022-11-16T18:54:11.479Z,3.73
2022-11-16T18:56:39.166Z,4.67
2022-11-16T18:59:06.860Z,5.77
2022-11-16T19:01:35.972Z,5.70
2022-11-16T19:04:03.689Z,4.27
2022-11-16T19:06:32.846Z,4.00
2022-11-16T19:09:00.557Z,4.57
2022-11-16T19:11:29.330Z,5.07
2022-11-16T19:14:00.462Z,4.13
2022-11-16T19:16:28.495Z,5.33
2022-11-16T19:18:57.650Z,3.53
2022-11-16T19:21:25.704Z,4.80
2022-11-16T19:23:54.978Z,2.93
2022-11-16T19:26:24.683Z,3.23
2022-11-16T19:28:53.516Z,2.63
2022-11-16T19:31:23.263Z,3.70
2022-11-16T19:33:54.947Z,4.27
2022-11-16T19:36:24.866Z,3.70
2022-11-16T19:38:53.710Z,4.50
2022-11-16T19:41:22.797Z,5.63
2022-11-16T19:43:52.462Z,5.13
2022-11-16T19:46:22.032Z,3.90
2022-11-16T19:48:50.300Z,4.63
2022-11-16T19:51:20.013Z,3.57
2022-11-16T19:53:49.727Z,4.70
2022-11-16T19:56:19.985Z,5.17
2022-11-16T19:58:47.860Z,4.70
2022-11-16T20:01:18.069Z,6.03
2022-11-16T20:03:46.619Z,4.93
2022-11-16T20:06:16.581Z,2.63
2022-11-16T20:08:50.489Z,3.43
2022-11-16T20:11:20.598Z,3.20
2022-11-16T20:13:48.858Z,3.83
2022-11-16T20:16:17.832Z,3.10
2022-11-16T20:18:46.052Z,3.20
2022-11-16T20:21:19.276Z,2.70
2022-11-16T20:23:46.953Z,2.97
2022-11-16T20:26:16.297Z,3.60
2022-11-16T20:28:44.252Z,2.70
2022-11-16T20:31:14.966Z,2.80
2022-11-16T20:33:43.831Z,3.37
2022-11-16T20:36:12.466Z,3.03
2022-11-16T20:38:40.694Z,3.30
2022-11-16T20:41:09.845Z,3.30
2022-11-16T20:43:40.230Z,2.17
2022-11-16T20:46:08.634Z,2.23
2022-11-16T20:48:36.467Z,2.70
2022-11-16T20:51:04.789Z,2.90
2022-11-16T20:53:33.435Z,2.30
2022-11-16T20:56:02.477Z,3.13
2022-11-16T20:58:30.528Z,2.00
2022-11-16T21:01:02.126Z,2.57
2022-11-16T21:03:30.118Z,3.43
2022-11-16T21:05:58.570Z,2.70
2022-11-16T21:08:27.085Z,2.57
2022-11-16T21:10:54.888Z,2.50
2022-11-16T21:13:40.118Z,4.30
2022-11-16T21:16:11.346Z,3.40
2022-11-16T21:18:39.395Z,2.33
2022-11-16T21:21:08.716Z,2.97
2022-11-16T21:23:37.529Z,3.53
2022-11-16T21:26:06.788Z,2.90
2022-11-16T21:28:35.339Z,2.93
2022-11-16T21:31:04.672Z,3.57
2022-11-16T21:33:34.656Z,2.73
2022-11-16T21:36:04.947Z,2.80
2022-11-16T21:38:33.910Z,2.60
2022-11-16T21:41:01.803Z,2.40
2022-11-16T21:43:29.502Z,2.10
2022-11-16T21:46:02.947Z,3.60
2022-11-16T21:48:34.164Z,2.33
2022-11-16T21:51:02.515Z,2.40
2022-11-16T21:53:30.441Z,2.60
2022-11-16T21:55:58.411Z,2.50
2022-11-16T21:58:26.399Z,2.53
2022-11-16T22:00:58.167Z,2.27
2022-11-16T22:03:27.213Z,3.03
2022-11-16T22:06:15.251Z,2.50
2022-11-16T22:08:43.752Z,2.97
2022-11-16T22:11:11.880Z,3.67
2022-11-16T22:13:39.995Z,2.87
2022-11-16T22:16:09.256Z,4.70
2022-11-16T22:18:37.431Z,3.13
2022-11-16T22:21:07.098Z,4.03
2022-11-16T22:23:35.915Z,2.97
2022-11-16T22:26:04.871Z,3.37
2022-11-16T22:28:33.686Z,3.87
2022-11-16T22:31:02.760Z,3.77
2022-11-16T22:33:30.698Z,2.70
2022-11-16T22:35:58.484Z,4.47
2022-11-16T22:38:28.071Z,4.33
2022-11-16T22:40:57.298Z,3.30
2022-11-16T22:43:26.327Z,4.27
2022-11-16T22:45:58.901Z,3.63
2022-11-16T22:48:31.128Z,3.90
2022-11-16T22:51:06.762Z,4.60
2022-11-16T22:53:36.423Z,3.73
2022-11-16T22:56:06.395Z,2.40
2022-11-16T22:58:34.157Z,4.10
2022-11-16T23:01:01.859Z,3.80
2022-11-16T23:03:30.148Z,3.60
2022-11-16T23:05:58.057Z,3.57
2022-11-16T23:08:25.892Z,4.00
2022-11-16T23:11:20.535Z,3.17
2022-11-16T23:14:06.139Z,3.20
2022-11-16T23:16:34.241Z,3.20
2022-11-16T23:19:02.197Z,3.77
2022-11-16T23:21:47.779Z,3.63
2022-11-16T23:24:34.343Z,4.53
2022-11-16T23:27:22.406Z,3.70
2022-11-16T23:29:50.459Z,4.00
2022-11-16T23:32:18.164Z,3.70
2022-11-16T23:34:45.932Z,4.83
2022-11-16T23:37:13.689Z,3.60
2022-11-16T23:39:41.558Z,4.53
2022-11-16T23:42:28.550Z,3.47
2022-11-16T23:44:56.345Z,3.40
2022-11-16T23:47:24.711Z,2.97
2022-11-16T23:49:52.496Z,4.00
2022-11-16T23:52:20.251Z,4.17
2022-11-16T23:54:48.005Z,2.30
2022-11-16T23:57:17.234Z,3.40
2022-11-16T23:59:45.096Z,3.37
